createdAt,value
2018-09-12T00:00:56.877Z,94.26
2018-09-12T00:01:56.869Z,94.65
2018-09-12T00:02:56.864Z,95.03
2018-09-12T00:03:56.860Z,94.93
2018-09-12T00:04:56.595Z,94.69
2018-09-12T00:05:56.850Z,94.21
2018-09-12T00:06:56.848Z,94.5
2018-09-12T00:07:56.837Z,94.98
2018-09-12T00:08:56.829Z,93.93
2018-09-12T00:09:56.568Z,94.02
2018-09-12T00:10:56.818Z,93.93
2018-09-12T00:11:56.557Z,94.31
2018-09-12T00:12:56.815Z,94.21
2018-09-12T00:13:56.805Z,94.6
2018-09-12T00:14:56.797Z,94.36
2018-09-12T00:15:56.791Z,94.84
2018-09-12T00:16:56.529Z,93.54
2018-09-12T00:17:56.778Z,92.97
2018-09-12T00:18:56.772Z,93.64
2018-09-12T00:19:56.773Z,94.02
2018-09-12T00:20:56.778Z,94.21
2018-09-12T00:21:56.758Z,94.31
2018-09-12T00:22:56.758Z,93.93
2018-09-12T00:23:56.746Z,94.12
2018-09-12T00:24:56.743Z,93.45
2018-09-12T00:25:56.733Z,94.12
2018-09-12T00:26:56.733Z,94.12
2018-09-12T00:27:56.727Z,93.74
2018-09-12T00:28:56.722Z,93.74
2018-09-12T00:29:56.730Z,94.12
2018-09-12T00:30:56.705Z,93.83
2018-09-12T00:31:56.710Z,93.74
2018-09-12T00:32:56.438Z,93.54
2018-09-12T00:33:56.693Z,93.54
2018-09-12T00:34:56.694Z,93.35
2018-09-12T00:35:56.685Z,93.35
2018-09-12T00:36:56.681Z,93.45
2018-09-12T00:37:56.674Z,94.02
2018-09-12T00:38:56.662Z,93.83
2018-09-12T00:39:56.661Z,93.93
2018-09-12T00:40:56.400Z,93.83
2018-09-12T00:41:56.391Z,94.31
2018-09-12T00:42:56.643Z,94.26
2018-09-12T00:43:56.636Z,94.31
2018-09-12T00:44:56.629Z,94.31
2018-09-12T00:45:56.632Z,94.45
2018-09-12T00:46:56.365Z,94.07
2018-09-12T00:47:56.619Z,94.07
2018-09-12T00:48:56.615Z,94.36
2018-09-12T00:49:56.348Z,94.55
2018-09-12T00:50:56.605Z,94.26
2018-09-12T00:51:56.593Z,94.4
2018-09-12T00:52:56.591Z,94.07
2018-09-12T00:53:56.328Z,94.17
2018-09-12T00:54:56.581Z,94.12
2018-09-12T00:55:56.572Z,93.74
2018-09-12T00:56:56.564Z,93.83
2018-09-12T00:57:56.562Z,94.84
2018-09-12T00:58:56.297Z,93.98
2018-09-12T00:59:56.550Z,93.69
2018-09-12T01:00:56.549Z,93.54
2018-09-12T01:01:56.540Z,93.45
2018-09-12T01:02:56.547Z,93.83
2018-09-12T01:03:56.526Z,93.83
2018-09-12T01:04:56.530Z,94.26
2018-09-12T01:05:56.258Z,93.98
2018-09-12T01:06:56.510Z,94.45
2018-09-12T01:07:56.507Z,91.49
2018-09-12T01:08:56.499Z,94.17
2018-09-12T01:09:56.494Z,92.35
2018-09-12T01:10:56.487Z,94.6
2018-09-12T01:11:56.484Z,94.98
2018-09-12T01:12:56.482Z,95.03
2018-09-12T01:13:56.475Z,94.65
2018-09-12T01:14:56.520Z,93.79
2018-09-12T01:15:56.462Z,94.36
2018-09-12T01:16:56.457Z,95.31
2018-09-12T01:17:56.449Z,95.03
2018-09-12T01:18:56.457Z,94.36
2018-09-12T01:19:56.438Z,94.65
2018-09-12T01:20:56.433Z,94.26
2018-09-12T01:21:56.427Z,94.17
2018-09-12T01:22:56.421Z,93.3
2018-09-12T01:23:56.420Z,93.74
2018-09-12T01:24:56.413Z,93.69
2018-09-12T01:25:56.148Z,94.69
2018-09-12T01:26:56.402Z,94.4
2018-09-12T01:27:56.397Z,94.31
2018-09-12T01:28:56.394Z,94.31
2018-09-12T01:29:56.383Z,93.83
2018-09-12T01:30:56.378Z,93.74
2018-09-12T01:31:56.369Z,94.02
2018-09-12T01:32:56.370Z,93.93
2018-09-12T01:33:56.359Z,93.74
2018-09-12T01:34:56.364Z,94.4
2018-09-12T01:35:56.093Z,94.21
2018-09-12T01:36:56.088Z,94.36
2018-09-12T01:37:56.081Z,94.26
2018-09-12T01:38:56.333Z,93.88
2018-09-12T01:39:56.327Z,93.98
2018-09-12T01:40:56.065Z,93.98
2018-09-12T01:41:56.317Z,93.12
2018-09-12T01:42:56.307Z,93.5
2018-09-12T01:43:56.307Z,94.6
2018-09-12T01:44:56.304Z,95.03
2018-09-12T01:45:56.040Z,94.31
2018-09-12T01:46:56.033Z,94.31
2018-09-12T01:47:56.286Z,94.31
2018-09-12T01:48:56.279Z,94.5
2018-09-12T01:49:56.273Z,94.89
2018-09-12T01:50:56.270Z,94.41
2018-09-12T01:51:56.263Z,94.6
2018-09-12T01:52:56.252Z,94.12
2018-09-12T01:53:56.248Z,94.7
2018-09-12T01:54:56.248Z,94.7
2018-09-12T01:55:56.240Z,94.31
2018-09-12T01:56:56.236Z,94.02
2018-09-12T01:57:55.968Z,94.7
2018-09-12T01:58:55.963Z,93.55
2018-09-12T01:59:56.217Z,93.93
2018-09-12T02:00:56.210Z,93.26
2018-09-12T02:01:56.202Z,94.21
2018-09-12T02:02:56.196Z,94.5
2018-09-12T02:03:56.191Z,95.07
2018-09-12T02:04:56.190Z,94.5
2018-09-12T02:05:56.178Z,94.21
2018-09-12T02:06:56.180Z,94.36
2018-09-12T02:07:56.166Z,94.89
2018-09-12T02:08:56.162Z,95.12
2018-09-12T02:09:55.900Z,94.36
2018-09-12T02:10:56.147Z,94.45
2018-09-12T02:11:56.149Z,94.84
2018-09-12T02:12:56.142Z,95.03
2018-09-12T02:13:55.876Z,94.41
2018-09-12T02:14:56.128Z,94.65
2018-09-12T02:15:56.125Z,94.45
2018-09-12T02:16:56.164Z,92.02
2018-09-12T02:17:56.107Z,95.31
2018-09-12T02:18:56.106Z,95.07
2018-09-12T02:19:56.100Z,94.74
2018-09-12T02:20:55.837Z,93.98
2018-09-12T02:21:55.834Z,94.93
2018-09-12T02:22:55.824Z,95.31
2018-09-12T02:23:56.075Z,94.74
2018-09-12T02:24:56.067Z,94.93
2018-09-12T02:25:56.064Z,94.55
2018-09-12T02:26:56.058Z,93.98
2018-09-12T02:27:55.795Z,94.6
2018-09-12T02:28:55.788Z,93.93
2018-09-12T02:29:56.111Z,93.84
2018-09-12T02:30:56.035Z,94.12
2018-09-12T02:31:56.032Z,93.64
2018-09-12T02:32:56.022Z,94.02
2018-09-12T02:33:56.018Z,93.55
2018-09-12T02:34:55.757Z,93.55
2018-09-12T02:35:56.004Z,94.02
2018-09-12T02:36:55.745Z,94.7
2018-09-12T02:37:55.993Z,93.74
2018-09-12T02:38:55.731Z,92.3
2018-09-12T02:39:55.984Z,92.49
2018-09-12T02:40:55.979Z,91.25
2018-09-12T02:41:55.967Z,92.45
2018-09-12T02:42:55.966Z,93.6
2018-09-12T02:43:55.962Z,93.6
2018-09-12T02:44:55.954Z,92.45
2018-09-12T02:45:55.952Z,92.35
2018-09-12T02:46:55.941Z,91.39
2018-09-12T02:47:55.937Z,91.97
2018-09-12T02:48:55.930Z,90.53
2018-09-12T02:49:55.921Z,90.92
2018-09-12T02:50:55.915Z,88.91
2018-09-12T02:51:55.654Z,89.01
2018-09-12T02:52:55.905Z,88.72
2018-09-12T02:53:55.897Z,87.62
2018-09-12T02:54:55.892Z,89.77
2018-09-12T02:55:55.883Z,87.48
2018-09-12T02:56:55.878Z,88.43
2018-09-12T02:57:55.872Z,86.61
2018-09-12T02:58:55.870Z,85.14
2018-09-12T02:59:55.863Z,85.52
2018-09-12T03:00:55.851Z,84.28
2018-09-12T03:01:55.863Z,84.19
2018-09-12T03:02:55.842Z,84.09
2018-09-12T03:03:55.839Z,85.9
2018-09-12T03:04:55.830Z,86.57
2018-09-12T03:05:55.827Z,87.05
2018-09-12T03:06:55.566Z,86.19
2018-09-12T03:07:56.186Z,86.57
2018-09-12T03:08:55.546Z,85.96
2018-09-12T03:09:55.817Z,85.71
2018-09-12T03:10:55.542Z,86.05
2018-09-12T03:11:55.787Z,85
2018-09-12T03:12:55.776Z,85.19
2018-09-12T03:13:55.771Z,84.52
2018-09-12T03:14:55.770Z,83.18
2018-09-12T03:15:55.758Z,82.71
2018-09-12T03:16:55.751Z,81.85
2018-09-12T03:17:55.752Z,79.65
2018-09-12T03:18:55.759Z,81.09
2018-09-12T03:19:55.731Z,81.66
2018-09-12T03:20:56.120Z,79.46
2018-09-12T03:21:55.473Z,77.26
2018-09-12T03:22:55.714Z,77.17
2018-09-12T03:23:55.704Z,77.84
2018-09-12T03:24:55.698Z,76.56
2018-09-12T03:25:55.703Z,78.37
2018-09-12T03:26:55.683Z,77.65
2018-09-12T03:27:55.680Z,79.43
2018-09-12T03:28:55.672Z,77.51
2018-09-12T03:29:55.405Z,76.08
2018-09-12T03:30:55.665Z,80.57
2018-09-12T03:31:55.657Z,79.99
2018-09-12T03:32:55.642Z,79.04
2018-09-12T03:33:55.638Z,79.75
2018-09-12T03:34:55.639Z,79.33
2018-09-12T03:35:55.623Z,77.8
2018-09-12T03:36:55.615Z,77.13
2018-09-12T03:37:55.355Z,74.93
2018-09-12T03:38:55.605Z,76.65
2018-09-12T03:39:55.596Z,78.47
2018-09-12T03:40:55.585Z,77.03
2018-09-12T03:41:55.579Z,77.61
2018-09-12T03:42:55.579Z,77.32
2018-09-12T03:43:55.566Z,77.8
2018-09-12T03:44:55.557Z,77.13
2018-09-12T03:45:55.557Z,77.42
2018-09-12T03:46:55.541Z,77.42
2018-09-12T03:47:55.595Z,78.75
2018-09-12T03:48:55.530Z,78.66
2018-09-12T03:49:55.523Z,78.56
2018-09-12T03:50:55.517Z,77.51
2018-09-12T03:51:55.515Z,77.99
2018-09-12T03:52:55.506Z,78.47
2018-09-12T03:53:55.492Z,78.47
2018-09-12T03:54:55.229Z,77.32
2018-09-12T03:55:55.220Z,77.89
2018-09-12T03:56:55.472Z,78.37
2018-09-12T03:57:55.466Z,77.61
2018-09-12T03:58:55.200Z,75.89
2018-09-12T03:59:55.195Z,75.22
2018-09-12T04:00:55.443Z,72.83
2018-09-12T04:01:55.437Z,72.36
2018-09-12T04:02:55.708Z,72.93
2018-09-12T04:03:55.420Z,70.07
2018-09-12T04:04:55.411Z,72.36
2018-09-12T04:05:55.408Z,72.74
2018-09-12T04:06:55.396Z,71.5
2018-09-12T04:07:55.406Z,73.98
2018-09-12T04:08:55.400Z,73.5
2018-09-12T04:09:55.376Z,73.5
2018-09-12T04:10:55.371Z,73.22
2018-09-12T04:11:55.360Z,71.88
2018-09-12T04:12:55.358Z,71.69
2018-09-12T04:13:55.089Z,72.45
2018-09-12T04:14:55.341Z,73.41
2018-09-12T04:15:55.330Z,69.49
2018-09-12T04:16:55.630Z,69.21
2018-09-12T04:17:55.319Z,69.56
2018-09-12T04:18:55.310Z,69.84
2018-09-12T04:19:55.299Z,70.7
2018-09-12T04:20:55.299Z,71.5
2018-09-12T04:21:55.289Z,70.26
2018-09-12T04:22:55.285Z,69.65
2018-09-12T04:23:55.269Z,67.3
2018-09-12T04:24:55.261Z,68.06
2018-09-12T04:25:55.261Z,68.54
2018-09-12T04:26:55.251Z,66.82
2018-09-12T04:27:55.246Z,68.92
2018-09-12T04:28:55.231Z,67.77
2018-09-12T04:29:55.225Z,67.4
2018-09-12T04:30:55.219Z,68.35
2018-09-12T04:31:55.210Z,69.4
2018-09-12T04:32:55.204Z,70.16
2018-09-12T04:33:55.195Z,71.69
2018-09-12T04:34:55.210Z,70.73
2018-09-12T04:35:55.179Z,71.02
2018-09-12T04:36:55.171Z,72.45
2018-09-12T04:37:55.166Z,73.88
2018-09-12T04:38:55.157Z,72.17
2018-09-12T04:39:55.156Z,71.78
2018-09-12T04:40:55.147Z,71.59
2018-09-12T04:41:55.137Z,71.98
2018-09-12T04:42:55.313Z,73.5
2018-09-12T04:43:55.126Z,72.36
2018-09-12T04:44:55.116Z,72.26
2018-09-12T04:45:54.849Z,72.17
2018-09-12T04:46:55.104Z,72.26
2018-09-12T04:47:55.094Z,72.45
2018-09-12T04:48:55.085Z,74.55
2018-09-12T04:49:55.079Z,75.51
2018-09-12T04:50:55.075Z,75.35
2018-09-12T04:51:54.807Z,75.32
2018-09-12T04:52:55.060Z,75.6
2018-09-12T04:53:54.791Z,77.23
2018-09-12T04:54:54.784Z,76.94
2018-09-12T04:55:54.774Z,75.13
2018-09-12T04:56:54.768Z,75.32
2018-09-12T04:57:55.016Z,74.98
2018-09-12T04:58:55.012Z,75.7
2018-09-12T04:59:55.110Z,75.07
2018-09-12T05:00:54.998Z,75.89
2018-09-12T05:01:54.993Z,72.93
2018-09-12T05:02:54.726Z,72.55
2018-09-12T05:03:54.975Z,73.22
2018-09-12T05:04:54.966Z,73.32
2018-09-12T05:05:54.961Z,71.88
2018-09-12T05:06:54.955Z,72.93
2018-09-12T05:07:54.687Z,73.79
2018-09-12T05:08:54.948Z,72.74
2018-09-12T05:09:54.930Z,74.84
2018-09-12T05:10:54.923Z,72.3
2018-09-12T05:11:54.913Z,71.88
2018-09-12T05:12:54.917Z,70.92
2018-09-12T05:13:54.900Z,71.34
2018-09-12T05:14:54.894Z,71.72
2018-09-12T05:15:54.956Z,71.78
2018-09-12T05:16:54.879Z,71.41
2018-09-12T05:17:54.872Z,72.36
2018-09-12T05:18:54.864Z,72.97
2018-09-12T05:19:54.860Z,70.96
2018-09-12T05:20:54.592Z,72.36
2018-09-12T05:21:54.846Z,73.63
2018-09-12T05:22:54.837Z,72.01
2018-09-12T05:23:54.831Z,71.15
2018-09-12T05:24:54.562Z,72.58
2018-09-12T05:25:54.815Z,73.54
2018-09-12T05:26:54.813Z,73.35
2018-09-12T05:27:54.798Z,72.58
2018-09-12T05:28:54.793Z,74.02
2018-09-12T05:29:54.784Z,74.21
2018-09-12T05:30:54.520Z,71.44
2018-09-12T05:31:54.772Z,73.25
2018-09-12T05:32:54.505Z,73.35
2018-09-12T05:33:54.756Z,76.69
2018-09-12T05:34:54.747Z,77.45
2018-09-12T05:35:54.739Z,77.78
2018-09-12T05:36:54.739Z,77.11
2018-09-12T05:37:54.736Z,77.21
2018-09-12T05:38:54.725Z,77.4
2018-09-12T05:39:54.714Z,79.41
2018-09-12T05:40:54.707Z,80.07
2018-09-12T05:41:54.708Z,82.65
2018-09-12T05:42:54.693Z,83.94
2018-09-12T05:43:54.681Z,84.61
2018-09-12T05:44:54.676Z,84.42
2018-09-12T05:45:54.673Z,84.7
2018-09-12T05:46:54.661Z,85.85
2018-09-12T05:47:54.658Z,85.47
2018-09-12T05:48:54.651Z,86.04
2018-09-12T05:49:54.644Z,88.09
2018-09-12T05:50:54.639Z,86.18
2018-09-12T05:51:54.630Z,88.95
2018-09-12T05:52:54.367Z,92.49
2018-09-12T05:53:54.618Z,92.59
2018-09-12T05:54:54.616Z,92.44
2018-09-12T05:55:54.616Z,91.3
2018-09-12T05:56:54.604Z,93.3
2018-09-12T05:57:54.596Z,93.16
2018-09-12T05:58:54.583Z,93.54
2018-09-12T05:59:54.580Z,93.74
2018-09-12T06:00:54.573Z,94.12
2018-09-12T06:01:54.569Z,93.93
2018-09-12T06:02:54.305Z,94.89
2018-09-12T06:03:54.563Z,95.46
2018-09-12T06:04:54.548Z,94.69
2018-09-12T06:05:54.544Z,94.89
2018-09-12T06:06:54.828Z,94.69
2018-09-12T06:07:54.532Z,95.07
2018-09-12T06:08:54.269Z,94.35
2018-09-12T06:09:54.525Z,94.74
2018-09-12T06:10:54.515Z,94.35
2018-09-12T06:11:54.509Z,94.17
2018-09-12T06:12:54.503Z,94.55
2018-09-12T06:13:54.278Z,94.74
2018-09-12T06:14:54.494Z,94.74
2018-09-12T06:15:54.485Z,94.64
2018-09-12T06:16:54.481Z,94.74
2018-09-12T06:17:54.480Z,94.64
2018-09-12T06:18:54.471Z,95.12
2018-09-12T06:19:54.463Z,94.74
2018-09-12T06:20:54.202Z,94.74
2018-09-12T06:21:54.197Z,94.93
2018-09-12T06:22:54.459Z,94.74
2018-09-12T06:23:54.464Z,95.03
2018-09-12T06:24:54.439Z,94.55
2018-09-12T06:25:54.435Z,94.74
2018-09-12T06:26:54.427Z,94.84
2018-09-12T06:27:54.428Z,94.35
2018-09-12T06:28:54.426Z,94.55
2018-09-12T06:29:54.421Z,94.45
2018-09-12T06:30:54.427Z,94.26
2018-09-12T06:31:54.402Z,94.74
2018-09-12T06:32:54.394Z,94.35
2018-09-12T06:33:54.394Z,94.5
2018-09-12T06:34:54.385Z,94.12
2018-09-12T06:35:54.381Z,93.63
2018-09-12T06:36:54.392Z,94.59
2018-09-12T06:37:54.466Z,94.5
2018-09-12T06:38:54.367Z,94.79
2018-09-12T06:39:54.364Z,94.21
2018-09-12T06:40:54.360Z,94.02
2018-09-12T06:41:54.349Z,94.5
2018-09-12T06:42:54.347Z,94.4
2018-09-12T06:43:54.343Z,94.21
2018-09-12T06:44:54.078Z,94.21
2018-09-12T06:45:54.336Z,94.4
2018-09-12T06:46:54.328Z,94.12
2018-09-12T06:47:54.324Z,94.07
2018-09-12T06:48:54.323Z,94.35
2018-09-12T06:49:54.056Z,93.97
2018-09-12T06:50:54.311Z,94.35
2018-09-12T06:51:54.308Z,92.24
2018-09-12T06:52:54.298Z,95.03
2018-09-12T06:53:54.042Z,93.88
2018-09-12T06:54:54.034Z,93.78
2018-09-12T06:55:54.290Z,92.91
2018-09-12T06:56:54.024Z,92.19
2018-09-12T06:57:54.279Z,91.91
2018-09-12T06:58:54.279Z,91.05
2018-09-12T06:59:54.018Z,89.61
2018-09-12T07:00:54.376Z,88.79
2018-09-12T07:01:54.261Z,85.18
2018-09-12T07:02:54.257Z,83.64
2018-09-12T07:03:54.252Z,81.72
2018-09-12T07:04:54.246Z,81.96
2018-09-12T07:05:54.243Z,80.04
2018-09-12T07:06:54.239Z,80.42
2018-09-12T07:07:54.237Z,79.46
2018-09-12T07:08:54.237Z,79.27
2018-09-12T07:09:54.227Z,77.73
2018-09-12T07:10:54.225Z,77.76
2018-09-12T07:11:54.241Z,76.14
2018-09-12T07:12:54.222Z,77.76
2018-09-12T07:13:54.213Z,76.84
2018-09-12T07:14:54.216Z,76.36
2018-09-12T07:15:54.206Z,78.53
2018-09-12T07:16:53.946Z,75.75
2018-09-12T07:17:54.202Z,74.88
2018-09-12T07:18:54.198Z,74.69
2018-09-12T07:19:54.193Z,73.35
2018-09-12T07:20:54.195Z,72.19
2018-09-12T07:21:53.928Z,78.53
2018-09-12T07:22:54.184Z,76.42
2018-09-12T07:23:54.182Z,74.3
2018-09-12T07:24:54.198Z,72.77
2018-09-12T07:25:54.176Z,73.15
2018-09-12T07:26:54.174Z,72.32
2018-09-12T07:27:54.180Z,71.26
2018-09-12T07:28:54.172Z,70.59
2018-09-12T07:29:53.907Z,72.8
2018-09-12T07:30:54.165Z,72.61
2018-09-12T07:31:54.163Z,72.13
2018-09-12T07:32:54.154Z,69.63
2018-09-12T07:33:53.898Z,68.96
2018-09-12T07:34:54.154Z,71.84
2018-09-12T07:35:54.148Z,75.98
2018-09-12T07:36:54.150Z,73.86
2018-09-12T07:37:54.144Z,74.73
2018-09-12T07:38:53.883Z,75.02
2018-09-12T07:39:54.143Z,67.8
2018-09-12T07:40:54.139Z,69.28
2018-09-12T07:41:53.877Z,71.08
2018-09-12T07:42:54.131Z,71.3
2018-09-12T07:43:54.126Z,71.2
2018-09-12T07:44:53.869Z,69.85
2018-09-12T07:45:53.867Z,70.72
2018-09-12T07:46:54.125Z,73.32
2018-09-12T07:47:54.120Z,70.76
2018-09-12T07:48:54.141Z,68.16
2018-09-12T07:49:54.118Z,67.68
2018-09-12T07:50:54.126Z,66.14
2018-09-12T07:51:53.855Z,63.38
2018-09-12T07:52:54.116Z,60.49
2018-09-12T07:53:54.110Z,60.1
2018-09-12T07:54:54.112Z,60
2018-09-12T07:55:54.154Z,67.84
2018-09-12T07:56:53.847Z,64.56
2018-09-12T07:57:53.848Z,59.07
2018-09-12T07:58:54.108Z,58.88
2018-09-12T07:59:54.201Z,61.48
2018-09-12T08:00:54.104Z,62.18
2018-09-12T08:01:54.098Z,66.72
2018-09-12T08:02:54.099Z,65.85
2018-09-12T08:03:54.103Z,61.71
2018-09-12T08:04:54.114Z,57.29
2018-09-12T08:05:54.096Z,55.56
2018-09-12T08:06:54.095Z,59.42
2018-09-12T08:07:54.090Z,61.54
2018-09-12T08:08:54.091Z,58.36
2018-09-12T08:09:54.093Z,60.38
2018-09-12T08:10:54.090Z,57.59
2018-09-12T08:11:54.099Z,56.56
2018-09-12T08:12:54.087Z,54.14
2018-09-12T08:13:54.088Z,54.91
2018-09-12T08:14:53.831Z,54.82
2018-09-12T08:15:53.831Z,52.5
2018-09-12T08:16:54.116Z,51.92
2018-09-12T08:17:54.087Z,51.37
2018-09-12T08:18:53.830Z,52.23
2018-09-12T08:19:54.091Z,52.72
2018-09-12T08:20:54.080Z,54.27
2018-09-12T08:21:54.081Z,55.04
2018-09-12T08:22:53.825Z,53.2
2018-09-12T08:23:53.852Z,51.27
2018-09-12T08:24:54.086Z,52.53
2018-09-12T08:25:54.082Z,56.58
2018-09-12T08:26:53.824Z,54.36
2018-09-12T08:27:54.082Z,52.72
2018-09-12T08:28:54.081Z,51.39
2018-09-12T08:29:54.083Z,51.1
2018-09-12T08:30:54.080Z,49.75
2018-09-12T08:31:53.827Z,49.65
2018-09-12T08:32:54.081Z,48.79
2018-09-12T08:33:54.084Z,51.1
2018-09-12T08:34:54.079Z,50.62
2018-09-12T08:35:54.088Z,50.71
2018-09-12T08:36:53.825Z,50.52
2018-09-12T08:37:54.081Z,49.55
2018-09-12T08:38:54.083Z,49.17
2018-09-12T08:39:54.089Z,49.55
2018-09-12T08:40:54.082Z,50.62
2018-09-12T08:41:54.082Z,50.91
2018-09-12T08:42:54.086Z,53.91
2018-09-12T08:43:54.083Z,50.71
2018-09-12T08:44:54.080Z,50.81
2018-09-12T08:45:54.084Z,51.2
2018-09-12T08:46:53.827Z,47.94
2018-09-12T08:47:54.273Z,54.51
2018-09-12T08:48:54.085Z,51.42
2018-09-12T08:49:54.094Z,49.19
2018-09-12T08:50:54.083Z,48.32
2018-09-12T08:51:54.084Z,49.29
2018-09-12T08:52:53.832Z,48.61
2018-09-12T08:53:54.088Z,49.39
2018-09-12T08:54:54.089Z,48.23
2018-09-12T08:55:54.086Z,48.03
2018-09-12T08:56:54.256Z,47.65
2018-09-12T08:57:54.087Z,48.16
2018-09-12T08:58:54.091Z,47.38
2018-09-12T08:59:54.092Z,46.8
2018-09-12T09:00:54.096Z,47.09
2018-09-12T09:01:54.089Z,47.28
2018-09-12T09:02:54.087Z,51.93
2018-09-12T09:03:54.123Z,49.02
2018-09-12T09:04:54.090Z,48.35
2018-09-12T09:05:54.097Z,47.48
2018-09-12T09:06:54.090Z,47.28
2018-09-12T09:07:54.095Z,45.57
2018-09-12T09:08:54.091Z,44.98
2018-09-12T09:09:54.091Z,48.06
2018-09-12T09:10:54.092Z,45.66
2018-09-12T09:11:54.092Z,45.57
2018-09-12T09:12:53.838Z,42.96
2018-09-12T09:13:54.094Z,42.86
2018-09-12T09:14:54.099Z,43.73
2018-09-12T09:15:54.105Z,43.63
2018-09-12T09:16:53.840Z,43.44
2018-09-12T09:17:54.101Z,43.24
2018-09-12T09:18:53.842Z,42.76
2018-09-12T09:19:54.099Z,43.24
2018-09-12T09:20:54.101Z,44.7
2018-09-12T09:21:54.103Z,44.02
2018-09-12T09:22:54.102Z,43.44
2018-09-12T09:23:54.104Z,43.15
2018-09-12T09:24:54.103Z,43.15
2018-09-12T09:25:54.104Z,43.05
2018-09-12T09:26:54.108Z,45.28
2018-09-12T09:27:54.107Z,44.91
2018-09-12T09:28:54.108Z,44.4
2018-09-12T09:29:54.111Z,44.62
2018-09-12T09:30:54.116Z,45.3
2018-09-12T09:31:53.855Z,45.4
2018-09-12T09:32:54.114Z,43
2018-09-12T09:33:54.117Z,42.71
2018-09-12T09:34:54.216Z,43.48
2018-09-12T09:35:54.117Z,44.06
2018-09-12T09:36:54.117Z,43.48
2018-09-12T09:37:54.118Z,42.8
2018-09-12T09:38:54.119Z,40.86
2018-09-12T09:39:54.123Z,43.09
2018-09-12T09:40:54.126Z,42.78
2018-09-12T09:41:53.869Z,43.96
2018-09-12T09:42:54.265Z,44.53
2018-09-12T09:43:53.927Z,44.72
2018-09-12T09:44:54.126Z,42
2018-09-12T09:45:53.874Z,43.65
2018-09-12T09:46:53.872Z,42.61
2018-09-12T09:47:54.268Z,42.3
2018-09-12T09:48:54.131Z,42.1
2018-09-12T09:49:54.132Z,43.96
2018-09-12T09:50:54.139Z,42.22
2018-09-12T09:51:54.137Z,41.64
2018-09-12T09:52:54.151Z,43.48
2018-09-12T09:53:54.137Z,43
2018-09-12T09:54:54.441Z,41.45
2018-09-12T09:55:54.148Z,39.61
2018-09-12T09:56:54.144Z,38.45
2018-09-12T09:57:53.890Z,38.64
2018-09-12T09:58:53.888Z,39.03
2018-09-12T09:59:53.894Z,38.15
2018-09-12T10:00:54.149Z,39.32
2018-09-12T10:01:53.894Z,37.96
2018-09-12T10:02:54.154Z,38.54
2018-09-12T10:03:54.159Z,38.64
2018-09-12T10:04:54.157Z,39.41
2018-09-12T10:05:54.268Z,38.83
2018-09-12T10:06:54.158Z,39.03
2018-09-12T10:07:54.162Z,38.76
2018-09-12T10:08:54.163Z,38.95
2018-09-12T10:09:54.163Z,37.98
2018-09-12T10:10:54.165Z,37.3
2018-09-12T10:11:54.345Z,38.27
2018-09-12T10:12:54.168Z,38.56
2018-09-12T10:13:54.171Z,38.95
2018-09-12T10:14:54.172Z,38.27
2018-09-12T10:15:54.176Z,38.37
2018-09-12T10:16:54.175Z,38.46
2018-09-12T10:17:54.178Z,37.61
2018-09-12T10:18:54.181Z,38.39
2018-09-12T10:19:54.181Z,38.09
2018-09-12T10:20:53.925Z,36.16
2018-09-12T10:21:54.185Z,35.86
2018-09-12T10:22:54.187Z,35.28
2018-09-12T10:23:53.933Z,33.34
2018-09-12T10:24:54.189Z,31.7
2018-09-12T10:25:54.192Z,31.41
2018-09-12T10:26:53.945Z,31.5
2018-09-12T10:27:54.202Z,31.97
2018-09-12T10:28:54.198Z,36.82
2018-09-12T10:29:54.203Z,34.12
2018-09-12T10:30:54.202Z,33.15
2018-09-12T10:31:53.951Z,32.09
2018-09-12T10:32:54.205Z,32.84
2018-09-12T10:33:54.208Z,34.39
2018-09-12T10:34:54.213Z,32.17
2018-09-12T10:35:54.211Z,32.56
2018-09-12T10:36:54.217Z,33.04
2018-09-12T10:37:54.217Z,33.23
2018-09-12T10:38:54.220Z,33.04
2018-09-12T10:39:54.220Z,32.84
2018-09-12T10:40:53.994Z,33.52
2018-09-12T10:41:53.965Z,33.44
2018-09-12T10:42:54.220Z,32.47
2018-09-12T10:43:54.233Z,34.22
2018-09-12T10:44:54.229Z,34.31
2018-09-12T10:45:54.234Z,32.28
2018-09-12T10:46:53.976Z,34.31
2018-09-12T10:47:54.237Z,33.44
2018-09-12T10:48:54.241Z,33.44
2018-09-12T10:49:54.239Z,31.91
2018-09-12T10:50:54.241Z,31.13
2018-09-12T10:51:53.989Z,31.23
2018-09-12T10:52:54.247Z,31.32
2018-09-12T10:53:54.250Z,31.81
2018-09-12T10:54:54.261Z,32.1
2018-09-12T10:55:54.256Z,32.59
2018-09-12T10:56:54.255Z,32.2
2018-09-12T10:57:54.262Z,33.17
2018-09-12T10:58:54.295Z,31.42
2018-09-12T10:59:54.264Z,30.65
2018-09-12T11:00:54.266Z,30.26
2018-09-12T11:01:54.267Z,29.77
2018-09-12T11:02:54.268Z,30.05
2018-09-12T11:03:54.272Z,28.79
2018-09-12T11:04:54.274Z,29.76
2018-09-12T11:05:54.025Z,30.34
2018-09-12T11:06:54.030Z,33.54
2018-09-12T11:07:54.030Z,33.84
2018-09-12T11:08:54.296Z,32.59
2018-09-12T11:09:54.462Z,31.42
2018-09-12T11:10:54.291Z,29.77
2018-09-12T11:11:54.293Z,30.16
2018-09-12T11:12:54.295Z,30.45
2018-09-12T11:13:54.298Z,29.3
2018-09-12T11:14:54.304Z,29.6
2018-09-12T11:15:54.300Z,28.14
2018-09-12T11:16:54.304Z,26.68
2018-09-12T11:17:54.304Z,26.68
2018-09-12T11:18:54.052Z,27.46
2018-09-12T11:19:54.310Z,27.93
2018-09-12T11:20:54.315Z,28.13
2018-09-12T11:21:54.062Z,28.51
2018-09-12T11:22:54.319Z,29.19
2018-09-12T11:23:54.355Z,29.11
2018-09-12T11:24:54.379Z,29.01
2018-09-12T11:25:54.326Z,28.23
2018-09-12T11:26:54.343Z,27.84
2018-09-12T11:27:54.333Z,26.59
2018-09-12T11:28:54.333Z,26.49
2018-09-12T11:29:54.333Z,26.78
2018-09-12T11:30:54.334Z,27.26
2018-09-12T11:31:54.341Z,26.67
2018-09-12T11:32:54.348Z,27.15
2018-09-12T11:33:54.090Z,28.51
2018-09-12T11:34:54.350Z,28.41
2018-09-12T11:35:54.348Z,27.45
2018-09-12T11:36:54.352Z,27.17
2018-09-12T11:37:54.096Z,27.17
2018-09-12T11:38:54.098Z,26.76
2018-09-12T11:39:54.105Z,26.18
2018-09-12T11:40:54.364Z,26.28
2018-09-12T11:41:54.364Z,27.93
2018-09-12T11:42:54.367Z,28.9
2018-09-12T11:43:54.374Z,28.41
2018-09-12T11:44:54.372Z,28.13
2018-09-12T11:45:54.116Z,26.57
2018-09-12T11:46:54.376Z,27.45
2018-09-12T11:47:54.379Z,26.76
2018-09-12T11:48:54.384Z,26.96
2018-09-12T11:49:54.387Z,27.54
2018-09-12T11:50:54.387Z,27.25
2018-09-12T11:51:54.393Z,26.86
2018-09-12T11:52:54.392Z,27.45
2018-09-12T11:53:54.395Z,28.4
2018-09-12T11:54:54.397Z,26.56
2018-09-12T11:55:54.403Z,25.88
2018-09-12T11:56:54.402Z,26.46
2018-09-12T11:57:54.402Z,26.46
2018-09-12T11:58:54.149Z,26.27
2018-09-12T11:59:54.152Z,29.08
2018-09-12T12:00:54.409Z,29.57
2018-09-12T12:01:54.413Z,30.05
2018-09-12T12:02:54.157Z,29.66
2018-09-12T12:03:54.416Z,27.35
2018-09-12T12:04:54.419Z,26.57
2018-09-12T12:05:54.421Z,25.79
2018-09-12T12:06:54.164Z,26.46
2018-09-12T12:07:54.424Z,27.43
2018-09-12T12:08:54.428Z,27.72
2018-09-12T12:09:54.438Z,27.04
2018-09-12T12:10:54.430Z,27.35
2018-09-12T12:11:54.177Z,25.99
2018-09-12T12:12:54.436Z,26.37
2018-09-12T12:13:54.439Z,27.82
2018-09-12T12:14:54.441Z,28.03
2018-09-12T12:15:54.187Z,27.64
2018-09-12T12:16:54.448Z,27.06
2018-09-12T12:17:54.190Z,27.43
2018-09-12T12:18:54.448Z,26.75
2018-09-12T12:19:54.197Z,26.65
2018-09-12T12:20:54.198Z,27.25
2018-09-12T12:21:54.462Z,27.45
2018-09-12T12:22:54.460Z,27.54
2018-09-12T12:23:54.467Z,27.54
2018-09-12T12:24:54.474Z,27.45
2018-09-12T12:25:54.471Z,26.96
2018-09-12T12:26:54.474Z,26.96
2018-09-12T12:27:54.481Z,26.85
2018-09-12T12:28:54.219Z,26.65
2018-09-12T12:29:54.480Z,29.17
2018-09-12T12:30:54.486Z,27.72
2018-09-12T12:31:54.490Z,27.25
2018-09-12T12:32:54.488Z,27.25
2018-09-12T12:33:54.490Z,27.33
2018-09-12T12:34:54.494Z,27.24
2018-09-12T12:35:54.490Z,27.53
2018-09-12T12:36:54.496Z,26.95
2018-09-12T12:37:54.241Z,27.04
2018-09-12T12:38:54.502Z,28.2
2018-09-12T12:39:54.501Z,29.85
2018-09-12T12:40:54.504Z,29.95
2018-09-12T12:41:54.509Z,28.98
2018-09-12T12:42:54.519Z,27.72
2018-09-12T12:43:54.516Z,29.08
2018-09-12T12:44:54.524Z,28.98
2018-09-12T12:45:54.259Z,29.08
2018-09-12T12:46:54.261Z,29.76
2018-09-12T12:47:54.527Z,28.98
2018-09-12T12:48:54.270Z,29.17
2018-09-12T12:49:54.280Z,29.76
2018-09-12T12:50:54.273Z,30.05
2018-09-12T12:51:54.275Z,29.17
2018-09-12T12:52:54.535Z,29.08
2018-09-12T12:53:54.535Z,29.76
2018-09-12T12:54:54.541Z,31.02
2018-09-12T12:55:54.283Z,30.54